This is the latest recevied weather packets stored in our database for station/object OK5TVR-5. If no packets are shown the sender has not sent any weather packets the latest 10 day(s).
| Time | Temp. | Humidity | Pressure | Rain* | Wind** | Luminosity | Snow |
|---|---|---|---|---|---|---|---|
| 1788520041 | 26.11° C | 49% | 1007.3 hPa | 0 mm | - | 245 W/m² | - |
| 1788519141 | 25° C | 54% | 1007.4 hPa | 0 mm | - | 258 W/m² | - |
| 1788518241 | 25° C | 57% | 1007.7 hPa | 0 mm | - | 242 W/m² | - |
| 1788517341 | 23.89° C | 59% | 1008.2 hPa | 0 mm | - | 148 W/m² | - |
| 1788516441 | 23.89° C | 61% | 1008.4 hPa | 0 mm | - | 177 W/m² | - |
| 1788515541 | 22.78° C | 63% | 1008.9 hPa | 0 mm | - | 130 W/m² | - |
| 1788514641 | 22.78° C | 65% | 1009.2 hPa | 0 mm | - | 130 W/m² | - |
| 1788513740 | 22.22° C | 64% | 1009.3 hPa | 0 mm | - | 95 W/m² | - |
| 1788512841 | 22.78° C | 65% | 1009.2 hPa | 0 mm | - | 113 W/m² | - |
| 1788511941 | 22.22° C | 67% | 1009.6 hPa | 0 mm | - | 93 W/m² | - |
| 1788511041 | 21.67° C | 69% | 1009.9 hPa | 0 mm | - | 114 W/m² | - |
| 1788510141 | 21.11° C | 68% | 1010.1 hPa | 0 mm | - | 98 W/m² | - |
| 1788509241 | 21.11° C | 70% | 1010.3 hPa | 0 mm | - | 76 W/m² | - |
| 1788508340 | 20.56° C | 72% | 1010.4 hPa | 0 mm | - | 93 W/m² | - |
| 1788507441 | 20.56° C | 71% | 1010.4 hPa | 0 mm | - | 117 W/m² | - |
| 1788506541 | 20° C | 78% | 1010.4 hPa | 0 mm | - | 123 W/m² | - |
| 1788505640 | 18.89° C | 79% | 1010.9 hPa | 0 mm | - | 81 W/m² | - |
| 1788504740 | 17.78° C | 81% | 1011.3 hPa | 0 mm | - | 76 W/m² | - |
| 1788503840 | 18.33° C | 81% | 1011 hPa | 0 mm | - | 51 W/m² | - |
| 1788502940 | 17.78° C | 83% | 1011 hPa | 0 mm | - | 45 W/m² | - |
| 1788502041 | 17.22° C | 83% | 1011 hPa | 0 mm | - | 32 W/m² | - |
| 1788501140 | 16.67° C | 85% | 1011.3 hPa | 0 mm | - | 28 W/m² | - |
| 1788500240 | 16.11° C | 87% | 1011.4 hPa | 0.25 mm | - | 26 W/m² | - |
| 1788499340 | 16.11° C | 87% | 1011.6 hPa | 0.25 mm | - | 16 W/m² | - |
| 1788498441 | 15° C | 88% | 1011.7 hPa | 0.25 mm | - | 9 W/m² | - |
* Rain latest hour (hover to see other rain measurements)
** Current wind speed in m/s (hover to see current wind gust speed)